Pagina principale
METAR-TAF:

METAR-TAF

Aeroporti :

Wonderboom Airport

Pretoria, Sudafrica

latitudine: 25-39S, longitudine: 028-13E, altezza: 1248 m

Osservazione

Il bollettino è stato emesso 2 ore e 13 minuti fa, alle 15:00 UTC
Vento 1 kt da est/nord-est
Temperature 21°C
Umidità 18%
Pressione 1028 hPa
Visibilità 10 km o più
nessuna nube inferiore a 1500 m e nessun cumulonembo

METAR: FAWB 181500Z 06001KT CAVOK 21/M04 Q1028

Ora: 19:13 (17:13 UTC)

Previsione

Il bollettino è stato emesso 2 ore e 38 minuti fa, alle 14:35 UTC
Previsione valida dal 18 alle 10 UTC al 18 alle 18 UTC
Vento 3 kt da direzioni variabili
Visibilità 10 km o più
nessuna nube inferiore a 1500 m e nessun cumulonembo

TAF: FAWB 181435Z 1810/1818 VRB03KT CAVOK TX24/1812Z TN12/1818Z

Osservazioni e previsioni meteorologiche di più di 4000 aeroporti (messaggi METAR e TAF).

Le stazioni disponibili sono rappresentate dai dischi gialli e rossi sulla carta.

Puntare il mouse per vedere il nome della stazione.

Clicca sopra per visualizzare le osservazioni e previsioni meteorologiche.

Per cambiare la mappa : fare clic sui pulsanti verdi con una croce nera per ingrandire, il pulsante verde con un trattino per diminuire, o sulla freccia verde per le mappe adiacenti.


METAR-TAF: